sensor_id;sensor_type;location;lat;lon;timestamp;temperature;humidity
18147;DHT22;9199;48.832;9.182;2024-02-21T00:00:12;7.30;99.90
18147;DHT22;9199;48.832;9.182;2024-02-21T00:02:41;7.40;99.90
18147;DHT22;9199;48.832;9.182;2024-02-21T00:05:07;7.40;99.90
18147;DHT22;9199;48.832;9.182;2024-02-21T00:07:34;7.30;99.90
18147;DHT22;9199;48.832;9.182;2024-02-21T00:10:01;7.40;99.90
18147;DHT22;9199;48.832;9.182;2024-02-21T00:12:28;7.40;99.90
18147;DHT22;9199;48.832;9.182;2024-02-21T00:14:55;7.40;99.90
18147;DHT22;9199;48.832;9.182;2024-02-21T00:17:22;7.40;99.90
18147;DHT22;9199;48.832;9.182;2024-02-21T00:19:50;7.40;99.90
18147;DHT22;9199;48.832;9.182;2024-02-21T00:22:17;7.40;99.90
18147;DHT22;9199;48.832;9.182;2024-02-21T00:24:43;7.50;99.90
18147;DHT22;9199;48.832;9.182;2024-02-21T00:27:10;7.50;99.90
18147;DHT22;9199;48.832;9.182;2024-02-21T00:29:37;7.50;99.90
18147;DHT22;9199;48.832;9.182;2024-02-21T00:32:04;7.50;99.90
18147;DHT22;9199;48.832;9.182;2024-02-21T00:34:31;7.60;99.90
18147;DHT22;9199;48.832;9.182;2024-02-21T00:36:59;7.60;99.90
18147;DHT22;9199;48.832;9.182;2024-02-21T00:39:25;7.60;99.90
18147;DHT22;9199;48.832;9.182;2024-02-21T00:41:52;7.60;99.90
18147;DHT22;9199;48.832;9.182;2024-02-21T00:44:19;7.70;99.90
18147;DHT22;9199;48.832;9.182;2024-02-21T00:46:44;7.70;99.90
18147;DHT22;9199;48.832;9.182;2024-02-21T00:49:11;7.70;99.90
18147;DHT22;9199;48.832;9.182;2024-02-21T00:51:38;7.70;99.90
18147;DHT22;9199;48.832;9.182;2024-02-21T00:54:06;7.70;99.90
18147;DHT22;9199;48.832;9.182;2024-02-21T00:56:33;7.70;99.90
18147;DHT22;9199;48.832;9.182;2024-02-21T00:59:00;7.70;99.90
18147;DHT22;9199;48.832;9.182;2024-02-21T01:01:26;7.70;99.90
18147;DHT22;9199;48.832;9.182;2024-02-21T01:03:53;7.70;99.90
18147;DHT22;9199;48.832;9.182;2024-02-21T01:06:20;7.70;99.90
18147;DHT22;9199;48.832;9.182;2024-02-21T01:08:46;7.70;99.90
18147;DHT22;9199;48.832;9.182;2024-02-21T01:11:15;7.70;99.90
18147;DHT22;9199;48.832;9.182;2024-02-21T01:13:42;7.70;99.90
18147;DHT22;9199;48.832;9.182;2024-02-21T01:16:09;7.80;99.90
18147;DHT22;9199;48.832;9.182;2024-02-21T01:18:37;7.80;99.90
18147;DHT22;9199;48.832;9.182;2024-02-21T01:21:04;7.80;99.90
18147;DHT22;9199;48.832;9.182;2024-02-21T01:23:32;7.80;99.90
18147;DHT22;9199;48.832;9.182;2024-02-21T01:25:59;7.80;99.90
18147;DHT22;9199;48.832;9.182;2024-02-21T01:28:27;7.80;99.90
18147;DHT22;9199;48.832;9.182;2024-02-21T01:30:53;7.80;99.90
18147;DHT22;9199;48.832;9.182;2024-02-21T01:33:20;7.80;99.90
18147;DHT22;9199;48.832;9.182;2024-02-21T01:35:47;7.80;99.90
18147;DHT22;9199;48.832;9.182;2024-02-21T01:38:14;7.80;99.90
18147;DHT22;9199;48.832;9.182;2024-02-21T01:40:41;7.80;99.90
18147;DHT22;9199;48.832;9.182;2024-02-21T01:43:16;7.80;99.90
18147;DHT22;9199;48.832;9.182;2024-02-21T01:45:47;7.90;99.90
18147;DHT22;9199;48.832;9.182;2024-02-21T01:48:15;7.90;99.90
18147;DHT22;9199;48.832;9.182;2024-02-21T01:50:42;7.90;99.90
18147;DHT22;9199;48.832;9.182;2024-02-21T01:53:10;7.90;99.90
18147;DHT22;9199;48.832;9.182;2024-02-21T01:55:43;7.80;99.90
18147;DHT22;9199;48.832;9.182;2024-02-21T01:58:10;7.80;99.90
18147;DHT22;9199;48.832;9.182;2024-02-21T02:00:37;7.80;99.90
18147;DHT22;9199;48.832;9.182;2024-02-21T02:03:08;7.80;99.90
18147;DHT22;9199;48.832;9.182;2024-02-21T02:05:35;7.80;99.90
18147;DHT22;9199;48.832;9.182;2024-02-21T02:08:02;7.80;99.90
18147;DHT22;9199;48.832;9.182;2024-02-21T02:10:29;7.80;99.90
18147;DHT22;9199;48.832;9.182;2024-02-21T02:12:56;7.80;99.90
18147;DHT22;9199;48.832;9.182;2024-02-21T02:15:23;7.80;99.90
18147;DHT22;9199;48.832;9.182;2024-02-21T02:17:49;7.80;99.90
18147;DHT22;9199;48.832;9.182;2024-02-21T02:20:17;7.90;99.90
18147;DHT22;9199;48.832;9.182;2024-02-21T02:22:45;7.90;99.90
18147;DHT22;9199;48.832;9.182;2024-02-21T02:25:14;7.90;99.90
18147;DHT22;9199;48.832;9.182;2024-02-21T02:27:42;7.90;99.90
18147;DHT22;9199;48.832;9.182;2024-02-21T02:30:11;7.90;99.90
18147;DHT22;9199;48.832;9.182;2024-02-21T02:32:38;7.90;99.90
18147;DHT22;9199;48.832;9.182;2024-02-21T02:35:05;7.90;99.90
18147;DHT22;9199;48.832;9.182;2024-02-21T02:37:32;7.90;99.90
18147;DHT22;9199;48.832;9.182;2024-02-21T02:39:58;7.90;99.90
18147;DHT22;9199;48.832;9.182;2024-02-21T02:42:26;7.90;99.90
18147;DHT22;9199;48.832;9.182;2024-02-21T02:44:53;7.80;99.90
18147;DHT22;9199;48.832;9.182;2024-02-21T02:47:20;7.80;99.90
18147;DHT22;9199;48.832;9.182;2024-02-21T02:49:46;7.80;99.90
18147;DHT22;9199;48.832;9.182;2024-02-21T02:52:16;7.80;99.90
18147;DHT22;9199;48.832;9.182;2024-02-21T02:54:42;7.80;99.90
18147;DHT22;9199;48.832;9.182;2024-02-21T02:57:09;7.80;99.90
18147;DHT22;9199;48.832;9.182;2024-02-21T02:59:37;7.70;99.90
18147;DHT22;9199;48.832;9.182;2024-02-21T03:02:04;7.60;99.90
18147;DHT22;9199;48.832;9.182;2024-02-21T03:04:29;7.60;99.90
18147;DHT22;9199;48.832;9.182;2024-02-21T03:06:56;7.50;99.90
18147;DHT22;9199;48.832;9.182;2024-02-21T03:09:23;7.50;99.90
18147;DHT22;9199;48.832;9.182;2024-02-21T03:11:49;7.50;99.90
18147;DHT22;9199;48.832;9.182;2024-02-21T03:14:16;7.40;99.90
18147;DHT22;9199;48.832;9.182;2024-02-21T03:16:44;7.40;99.90
18147;DHT22;9199;48.832;9.182;2024-02-21T03:19:11;7.40;99.90
18147;DHT22;9199;48.832;9.182;2024-02-21T03:21:37;7.40;99.90
18147;DHT22;9199;48.832;9.182;2024-02-21T03:24:05;7.30;99.90
18147;DHT22;9199;48.832;9.182;2024-02-21T03:26:32;7.30;99.90
18147;DHT22;9199;48.832;9.182;2024-02-21T03:28:58;7.30;99.90
18147;DHT22;9199;48.832;9.182;2024-02-21T03:31:25;7.30;99.90
18147;DHT22;9199;48.832;9.182;2024-02-21T03:33:53;7.30;99.90
18147;DHT22;9199;48.832;9.182;2024-02-21T03:36:20;7.30;99.90
18147;DHT22;9199;48.832;9.182;2024-02-21T03:38:47;7.30;99.90
18147;DHT22;9199;48.832;9.182;2024-02-21T03:41:13;7.30;99.90
18147;DHT22;9199;48.832;9.182;2024-02-21T03:43:40;7.40;99.90
18147;DHT22;9199;48.832;9.182;2024-02-21T03:46:07;7.40;99.90
18147;DHT22;9199;48.832;9.182;2024-02-21T03:48:34;7.40;99.90
18147;DHT22;9199;48.832;9.182;2024-02-21T03:51:02;7.40;99.90
18147;DHT22;9199;48.832;9.182;2024-02-21T03:53:29;7.40;99.90
18147;DHT22;9199;48.832;9.182;2024-02-21T03:55:55;7.50;99.90
18147;DHT22;9199;48.832;9.182;2024-02-21T03:58:22;7.50;99.90
18147;DHT22;9199;48.832;9.182;2024-02-21T04:00:49;7.50;99.90
18147;DHT22;9199;48.832;9.182;2024-02-21T04:03:15;7.50;99.90
18147;DHT22;9199;48.832;9.182;2024-02-21T04:05:42;7.40;99.90
18147;DHT22;9199;48.832;9.182;2024-02-21T04:08:10;7.40;99.90
18147;DHT22;9199;48.832;9.182;2024-02-21T04:10:37;7.50;99.90
18147;DHT22;9199;48.832;9.182;2024-02-21T04:13:04;7.50;99.90
18147;DHT22;9199;48.832;9.182;2024-02-21T04:15:31;7.50;99.90
18147;DHT22;9199;48.832;9.182;2024-02-21T04:17:58;7.50;99.90
18147;DHT22;9199;48.832;9.182;2024-02-21T04:20:25;7.40;99.90
18147;DHT22;9199;48.832;9.182;2024-02-21T04:22:51;7.40;99.90
18147;DHT22;9199;48.832;9.182;2024-02-21T04:25:19;7.40;99.90
18147;DHT22;9199;48.832;9.182;2024-02-21T04:27:46;7.30;99.90
18147;DHT22;9199;48.832;9.182;2024-02-21T04:30:13;7.30;99.90
18147;DHT22;9199;48.832;9.182;2024-02-21T04:32:40;7.30;99.90
18147;DHT22;9199;48.832;9.182;2024-02-21T04:35:07;7.20;99.90
18147;DHT22;9199;48.832;9.182;2024-02-21T04:37:34;7.20;99.90
18147;DHT22;9199;48.832;9.182;2024-02-21T04:40:01;7.10;99.90
18147;DHT22;9199;48.832;9.182;2024-02-21T04:42:29;7.10;99.90
18147;DHT22;9199;48.832;9.182;2024-02-21T04:44:55;7.00;99.90
18147;DHT22;9199;48.832;9.182;2024-02-21T04:47:22;6.90;99.90
18147;DHT22;9199;48.832;9.182;2024-02-21T04:49:50;6.90;99.90
18147;DHT22;9199;48.832;9.182;2024-02-21T04:52:17;6.90;99.90
18147;DHT22;9199;48.832;9.182;2024-02-21T04:54:44;6.90;99.90
18147;DHT22;9199;48.832;9.182;2024-02-21T04:57:10;6.80;99.90
18147;DHT22;9199;48.832;9.182;2024-02-21T04:59:43;6.80;99.90
18147;DHT22;9199;48.832;9.182;2024-02-21T05:02:10;6.70;99.90
18147;DHT22;9199;48.832;9.182;2024-02-21T05:04:37;6.70;99.90
18147;DHT22;9199;48.832;9.182;2024-02-21T05:07:05;6.60;99.90
18147;DHT22;9199;48.832;9.182;2024-02-21T05:09:32;6.60;99.90
18147;DHT22;9199;48.832;9.182;2024-02-21T05:11:59;6.60;99.90
18147;DHT22;9199;48.832;9.182;2024-02-21T05:14:26;6.60;99.90
18147;DHT22;9199;48.832;9.182;2024-02-21T05:16:54;6.60;99.90
18147;DHT22;9199;48.832;9.182;2024-02-21T05:19:21;6.50;99.90
18147;DHT22;9199;48.832;9.182;2024-02-21T05:21:48;6.50;99.90
18147;DHT22;9199;48.832;9.182;2024-02-21T05:24:14;6.50;99.90
18147;DHT22;9199;48.832;9.182;2024-02-21T05:26:41;6.50;99.90
18147;DHT22;9199;48.832;9.182;2024-02-21T05:29:08;6.40;99.90
18147;DHT22;9199;48.832;9.182;2024-02-21T05:31:56;6.50;99.90
18147;DHT22;9199;48.832;9.182;2024-02-21T05:34:24;6.50;99.90
18147;DHT22;9199;48.832;9.182;2024-02-21T05:36:51;6.50;99.90
18147;DHT22;9199;48.832;9.182;2024-02-21T05:39:18;6.50;99.90
18147;DHT22;9199;48.832;9.182;2024-02-21T05:41:45;6.60;99.90
18147;DHT22;9199;48.832;9.182;2024-02-21T05:44:12;6.60;99.90
18147;DHT22;9199;48.832;9.182;2024-02-21T05:46:38;6.60;99.90
18147;DHT22;9199;48.832;9.182;2024-02-21T05:49:07;6.60;99.90
18147;DHT22;9199;48.832;9.182;2024-02-21T05:51:34;6.60;99.90
18147;DHT22;9199;48.832;9.182;2024-02-21T05:54:01;6.60;99.90
18147;DHT22;9199;48.832;9.182;2024-02-21T05:56:28;6.60;99.90
18147;DHT22;9199;48.832;9.182;2024-02-21T05:58:55;6.70;99.90
18147;DHT22;9199;48.832;9.182;2024-02-21T06:01:22;6.70;99.90
18147;DHT22;9199;48.832;9.182;2024-02-21T06:03:48;6.60;99.90
18147;DHT22;9199;48.832;9.182;2024-02-21T06:06:17;6.90;99.90
18147;DHT22;9199;48.832;9.182;2024-02-21T06:08:43;7.50;99.90
18147;DHT22;9199;48.832;9.182;2024-02-21T06:11:13;8.10;99.90
18147;DHT22;9199;48.832;9.182;2024-02-21T06:13:41;8.40;99.90
18147;DHT22;9199;48.832;9.182;2024-02-21T06:16:08;8.30;99.90
18147;DHT22;9199;48.832;9.182;2024-02-21T06:18:36;8.00;99.90
18147;DHT22;9199;48.832;9.182;2024-02-21T06:21:03;7.70;99.90
18147;DHT22;9199;48.832;9.182;2024-02-21T06:23:31;7.40;99.90
18147;DHT22;9199;48.832;9.182;2024-02-21T06:25:58;7.20;99.90
18147;DHT22;9199;48.832;9.182;2024-02-21T06:28:25;7.00;99.90
18147;DHT22;9199;48.832;9.182;2024-02-21T06:30:52;6.80;99.90
18147;DHT22;9199;48.832;9.182;2024-02-21T06:33:19;6.80;99.90
18147;DHT22;9199;48.832;9.182;2024-02-21T06:35:50;6.70;99.90
18147;DHT22;9199;48.832;9.182;2024-02-21T06:38:18;6.70;99.90
18147;DHT22;9199;48.832;9.182;2024-02-21T06:40:46;6.70;99.90
18147;DHT22;9199;48.832;9.182;2024-02-21T06:43:17;6.70;99.90
18147;DHT22;9199;48.832;9.182;2024-02-21T06:45:44;6.60;99.90
18147;DHT22;9199;48.832;9.182;2024-02-21T06:48:13;6.70;99.90
18147;DHT22;9199;48.832;9.182;2024-02-21T06:50:39;6.70;99.90
18147;DHT22;9199;48.832;9.182;2024-02-21T06:53:06;6.70;99.90
18147;DHT22;9199;48.832;9.182;2024-02-21T06:55:33;6.70;99.90
18147;DHT22;9199;48.832;9.182;2024-02-21T06:58:01;6.80;99.90
18147;DHT22;9199;48.832;9.182;2024-02-21T07:00:28;6.90;99.90
18147;DHT22;9199;48.832;9.182;2024-02-21T07:02:55;7.00;99.90
18147;DHT22;9199;48.832;9.182;2024-02-21T07:05:21;7.10;99.90
18147;DHT22;9199;48.832;9.182;2024-02-21T07:07:48;7.20;99.90
18147;DHT22;9199;48.832;9.182;2024-02-21T07:10:15;7.30;99.90
18147;DHT22;9199;48.832;9.182;2024-02-21T07:12:42;7.30;99.90
18147;DHT22;9199;48.832;9.182;2024-02-21T07:15:10;7.40;99.90
18147;DHT22;9199;48.832;9.182;2024-02-21T07:17:36;7.60;99.90
18147;DHT22;9199;48.832;9.182;2024-02-21T07:20:04;7.70;99.90
18147;DHT22;9199;48.832;9.182;2024-02-21T07:22:31;7.90;99.90
18147;DHT22;9199;48.832;9.182;2024-02-21T07:24:58;7.90;99.90
18147;DHT22;9199;48.832;9.182;2024-02-21T07:27:24;8.00;99.90
18147;DHT22;9199;48.832;9.182;2024-02-21T07:29:53;8.10;99.90
18147;DHT22;9199;48.832;9.182;2024-02-21T07:32:21;8.40;99.90
18147;DHT22;9199;48.832;9.182;2024-02-21T07:34:48;8.70;99.90
18147;DHT22;9199;48.832;9.182;2024-02-21T07:37:15;9.00;99.90
18147;DHT22;9199;48.832;9.182;2024-02-21T07:39:42;9.20;99.90
18147;DHT22;9199;48.832;9.182;2024-02-21T07:42:08;9.20;99.90
18147;DHT22;9199;48.832;9.182;2024-02-21T07:44:35;9.30;99.90
18147;DHT22;9199;48.832;9.182;2024-02-21T07:47:02;9.50;99.90
18147;DHT22;9199;48.832;9.182;2024-02-21T07:49:30;9.60;99.90
18147;DHT22;9199;48.832;9.182;2024-02-21T07:51:56;9.70;99.90
18147;DHT22;9199;48.832;9.182;2024-02-21T07:54:23;9.90;99.90
18147;DHT22;9199;48.832;9.182;2024-02-21T07:56:50;9.90;99.90
18147;DHT22;9199;48.832;9.182;2024-02-21T07:59:17;9.90;99.90
18147;DHT22;9199;48.832;9.182;2024-02-21T08:01:43;10.00;99.90
18147;DHT22;9199;48.832;9.182;2024-02-21T08:04:11;10.10;99.90
18147;DHT22;9199;48.832;9.182;2024-02-21T08:06:39;10.20;99.90
18147;DHT22;9199;48.832;9.182;2024-02-21T08:09:05;10.40;99.90
18147;DHT22;9199;48.832;9.182;2024-02-21T08:11:32;10.40;99.90
18147;DHT22;9199;48.832;9.182;2024-02-21T08:13:59;10.50;99.90
18147;DHT22;9199;48.832;9.182;2024-02-21T08:16:26;10.60;99.90
18147;DHT22;9199;48.832;9.182;2024-02-21T08:18:53;10.70;99.90
18147;DHT22;9199;48.832;9.182;2024-02-21T08:21:20;11.00;99.90
18147;DHT22;9199;48.832;9.182;2024-02-21T08:23:48;11.10;99.90
18147;DHT22;9199;48.832;9.182;2024-02-21T08:26:17;11.10;99.90
18147;DHT22;9199;48.832;9.182;2024-02-21T08:28:43;11.20;99.90
18147;DHT22;9199;48.832;9.182;2024-02-21T08:31:10;11.40;99.90
18147;DHT22;9199;48.832;9.182;2024-02-21T08:33:37;11.50;99.90
18147;DHT22;9199;48.832;9.182;2024-02-21T08:36:04;11.50;99.90
18147;DHT22;9199;48.832;9.182;2024-02-21T08:38:30;11.40;99.90
18147;DHT22;9199;48.832;9.182;2024-02-21T08:40:58;11.50;99.90
18147;DHT22;9199;48.832;9.182;2024-02-21T08:43:25;11.50;99.90
18147;DHT22;9199;48.832;9.182;2024-02-21T08:45:51;11.50;99.90
18147;DHT22;9199;48.832;9.182;2024-02-21T08:48:18;11.40;99.90
18147;DHT22;9199;48.832;9.182;2024-02-21T08:50:45;11.30;99.90
18147;DHT22;9199;48.832;9.182;2024-02-21T08:53:12;11.30;99.90
18147;DHT22;9199;48.832;9.182;2024-02-21T08:55:39;11.30;99.90
18147;DHT22;9199;48.832;9.182;2024-02-21T08:58:08;11.20;99.90
18147;DHT22;9199;48.832;9.182;2024-02-21T09:00:34;11.10;99.90
18147;DHT22;9199;48.832;9.182;2024-02-21T09:03:01;11.20;99.90
18147;DHT22;9199;48.832;9.182;2024-02-21T09:05:28;11.40;99.90
18147;DHT22;9199;48.832;9.182;2024-02-21T09:07:55;11.60;99.90
18147;DHT22;9199;48.832;9.182;2024-02-21T09:10:21;11.80;99.90
18147;DHT22;9199;48.832;9.182;2024-02-21T09:12:48;11.90;99.90
18147;DHT22;9199;48.832;9.182;2024-02-21T09:15:16;12.00;99.90
18147;DHT22;9199;48.832;9.182;2024-02-21T09:17:43;12.10;99.90
18147;DHT22;9199;48.832;9.182;2024-02-21T09:20:10;12.00;99.90
18147;DHT22;9199;48.832;9.182;2024-02-21T09:22:38;12.00;99.90
18147;DHT22;9199;48.832;9.182;2024-02-21T09:25:06;12.20;99.90
18147;DHT22;9199;48.832;9.182;2024-02-21T09:27:32;12.30;99.90
18147;DHT22;9199;48.832;9.182;2024-02-21T09:29:59;12.50;99.90
18147;DHT22;9199;48.832;9.182;2024-02-21T09:32:28;12.70;99.60
18147;DHT22;9199;48.832;9.182;2024-02-21T09:34:55;12.80;99.10
18147;DHT22;9199;48.832;9.182;2024-02-21T09:37:21;13.00;98.60
18147;DHT22;9199;48.832;9.182;2024-02-21T09:39:48;13.30;97.80
18147;DHT22;9199;48.832;9.182;2024-02-21T09:42:20;13.40;97.50
18147;DHT22;9199;48.832;9.182;2024-02-21T09:44:47;13.50;96.80
18147;DHT22;9199;48.832;9.182;2024-02-21T09:47:19;13.60;97.00
18147;DHT22;9199;48.832;9.182;2024-02-21T09:49:51;13.90;96.20
18147;DHT22;9199;48.832;9.182;2024-02-21T09:52:19;14.30;95.40
18147;DHT22;9199;48.832;9.182;2024-02-21T09:54:47;14.60;94.80
18147;DHT22;9199;48.832;9.182;2024-02-21T09:57:14;14.60;94.30
18147;DHT22;9199;48.832;9.182;2024-02-21T09:59:41;14.80;94.10
18147;DHT22;9199;48.832;9.182;2024-02-21T10:02:08;14.60;93.70
18147;DHT22;9199;48.832;9.182;2024-02-21T10:04:37;14.50;94.10
18147;DHT22;9199;48.832;9.182;2024-02-21T10:07:05;14.60;93.70
18147;DHT22;9199;48.832;9.182;2024-02-21T10:09:31;14.70;93.60
18147;DHT22;9199;48.832;9.182;2024-02-21T10:12:08;15.20;93.00
18147;DHT22;9199;48.832;9.182;2024-02-21T10:14:34;15.60;92.90
18147;DHT22;9199;48.832;9.182;2024-02-21T10:17:01;16.00;91.40
18147;DHT22;9199;48.832;9.182;2024-02-21T10:19:29;16.40;90.50
18147;DHT22;9199;48.832;9.182;2024-02-21T10:22:02;16.70;89.80
18147;DHT22;9199;48.832;9.182;2024-02-21T10:24:31;16.80;91.10
18147;DHT22;9199;48.832;9.182;2024-02-21T10:27:00;17.30;89.40
18147;DHT22;9199;48.832;9.182;2024-02-21T10:29:26;17.60;89.10
18147;DHT22;9199;48.832;9.182;2024-02-21T10:32:06;18.10;84.70
18147;DHT22;9199;48.832;9.182;2024-02-21T10:34:33;17.80;81.70
18147;DHT22;9199;48.832;9.182;2024-02-21T10:37:01;17.30;84.10
18147;DHT22;9199;48.832;9.182;2024-02-21T10:39:28;17.30;85.40
18147;DHT22;9199;48.832;9.182;2024-02-21T10:41:59;17.50;84.70
18147;DHT22;9199;48.832;9.182;2024-02-21T10:44:28;17.70;81.90
18147;DHT22;9199;48.832;9.182;2024-02-21T10:46:55;17.40;80.20
18147;DHT22;9199;48.832;9.182;2024-02-21T10:49:23;17.00;80.50
18147;DHT22;9199;48.832;9.182;2024-02-21T10:51:55;16.60;81.30
18147;DHT22;9199;48.832;9.182;2024-02-21T10:54:42;15.80;82.10
18147;DHT22;9199;48.832;9.182;2024-02-21T10:57:13;15.20;84.10
18147;DHT22;9199;48.832;9.182;2024-02-21T10:59:40;15.00;85.40
18147;DHT22;9199;48.832;9.182;2024-02-21T11:02:07;14.90;87.30
18147;DHT22;9199;48.832;9.182;2024-02-21T11:04:34;15.00;86.80
18147;DHT22;9199;48.832;9.182;2024-02-21T11:07:03;15.20;85.10
18147;DHT22;9199;48.832;9.182;2024-02-21T11:09:32;15.30;84.90
18147;DHT22;9199;48.832;9.182;2024-02-21T11:12:02;15.60;84.90
18147;DHT22;9199;48.832;9.182;2024-02-21T11:14:30;15.80;84.30
18147;DHT22;9199;48.832;9.182;2024-02-21T11:17:01;16.00;81.40
18147;DHT22;9199;48.832;9.182;2024-02-21T11:19:29;16.10;81.30
18147;DHT22;9199;48.832;9.182;2024-02-21T11:21:57;16.20;81.50
18147;DHT22;9199;48.832;9.182;2024-02-21T11:24:27;16.30;79.90
18147;DHT22;9199;48.832;9.182;2024-02-21T11:26:55;16.60;78.80
18147;DHT22;9199;48.832;9.182;2024-02-21T11:29:25;16.40;78.60
18147;DHT22;9199;48.832;9.182;2024-02-21T11:31:53;16.50;79.90
18147;DHT22;9199;48.832;9.182;2024-02-21T11:34:20;16.50;79.70
18147;DHT22;9199;48.832;9.182;2024-02-21T11:36:48;16.90;79.20
18147;DHT22;9199;48.832;9.182;2024-02-21T11:39:18;17.10;75.10
18147;DHT22;9199;48.832;9.182;2024-02-21T11:41:47;17.00;75.70
18147;DHT22;9199;48.832;9.182;2024-02-21T11:44:14;17.10;74.30
18147;DHT22;9199;48.832;9.182;2024-02-21T11:46:40;17.30;73.90
18147;DHT22;9199;48.832;9.182;2024-02-21T11:49:09;17.20;73.60
18147;DHT22;9199;48.832;9.182;2024-02-21T11:51:36;16.90;73.70
18147;DHT22;9199;48.832;9.182;2024-02-21T11:54:02;16.70;73.30
18147;DHT22;9199;48.832;9.182;2024-02-21T11:56:30;16.50;74.40
18147;DHT22;9199;48.832;9.182;2024-02-21T11:58:59;16.40;73.60
18147;DHT22;9199;48.832;9.182;2024-02-21T12:01:26;16.50;74.40
18147;DHT22;9199;48.832;9.182;2024-02-21T12:03:52;16.20;73.90
18147;DHT22;9199;48.832;9.182;2024-02-21T12:06:22;16.20;75.40
18147;DHT22;9199;48.832;9.182;2024-02-21T12:08:50;15.90;75.30
18147;DHT22;9199;48.832;9.182;2024-02-21T12:11:19;15.80;76.70
18147;DHT22;9199;48.832;9.182;2024-02-21T12:13:46;15.90;78.30
18147;DHT22;9199;48.832;9.182;2024-02-21T12:16:15;16.00;76.10
18147;DHT22;9199;48.832;9.182;2024-02-21T12:18:43;16.10;76.70
18147;DHT22;9199;48.832;9.182;2024-02-21T12:21:10;16.10;76.70
18147;DHT22;9199;48.832;9.182;2024-02-21T12:23:39;16.10;79.20
18147;DHT22;9199;48.832;9.182;2024-02-21T12:26:06;16.20;78.10
18147;DHT22;9199;48.832;9.182;2024-02-21T12:28:33;16.40;78.00
18147;DHT22;9199;48.832;9.182;2024-02-21T12:31:00;16.30;75.90
18147;DHT22;9199;48.832;9.182;2024-02-21T12:33:29;16.30;75.90
18147;DHT22;9199;48.832;9.182;2024-02-21T12:35:56;16.50;76.60
18147;DHT22;9199;48.832;9.182;2024-02-21T12:38:23;16.50;75.10
18147;DHT22;9199;48.832;9.182;2024-02-21T12:40:52;16.60;76.40
18147;DHT22;9199;48.832;9.182;2024-02-21T12:43:22;16.90;72.70
18147;DHT22;9199;48.832;9.182;2024-02-21T12:45:51;17.20;71.40
18147;DHT22;9199;48.832;9.182;2024-02-21T12:48:20;17.50;70.40
18147;DHT22;9199;48.832;9.182;2024-02-21T12:50:49;17.60;70.40
18147;DHT22;9199;48.832;9.182;2024-02-21T12:53:17;17.80;68.90
18147;DHT22;9199;48.832;9.182;2024-02-21T12:55:45;17.60;68.40
18147;DHT22;9199;48.832;9.182;2024-02-21T12:58:13;17.50;67.50
18147;DHT22;9199;48.832;9.182;2024-02-21T13:00:43;17.30;67.60
18147;DHT22;9199;48.832;9.182;2024-02-21T13:03:10;17.20;67.30
18147;DHT22;9199;48.832;9.182;2024-02-21T13:05:36;16.80;68.30
18147;DHT22;9199;48.832;9.182;2024-02-21T13:08:04;16.80;68.80
18147;DHT22;9199;48.832;9.182;2024-02-21T13:10:31;17.00;67.90
18147;DHT22;9199;48.832;9.182;2024-02-21T13:12:59;17.10;68.70
18147;DHT22;9199;48.832;9.182;2024-02-21T13:15:28;17.10;69.10
18147;DHT22;9199;48.832;9.182;2024-02-21T13:17:55;17.20;69.40
18147;DHT22;9199;48.832;9.182;2024-02-21T13:20:22;17.20;67.80
18147;DHT22;9199;48.832;9.182;2024-02-21T13:22:49;17.20;67.60
18147;DHT22;9199;48.832;9.182;2024-02-21T13:25:16;17.10;66.30
18147;DHT22;9199;48.832;9.182;2024-02-21T13:27:45;17.10;66.50
18147;DHT22;9199;48.832;9.182;2024-02-21T13:30:13;17.00;66.70
18147;DHT22;9199;48.832;9.182;2024-02-21T13:32:42;16.80;66.50
18147;DHT22;9199;48.832;9.182;2024-02-21T13:35:11;16.60;66.50
18147;DHT22;9199;48.832;9.182;2024-02-21T13:37:38;16.60;66.50
18147;DHT22;9199;48.832;9.182;2024-02-21T13:40:06;16.60;67.60
18147;DHT22;9199;48.832;9.182;2024-02-21T13:42:34;16.70;66.60
18147;DHT22;9199;48.832;9.182;2024-02-21T13:45:01;16.50;67.30
18147;DHT22;9199;48.832;9.182;2024-02-21T13:47:28;16.40;67.40
18147;DHT22;9199;48.832;9.182;2024-02-21T13:49:56;16.30;66.00
18147;DHT22;9199;48.832;9.182;2024-02-21T13:52:23;16.20;65.30
18147;DHT22;9199;48.832;9.182;2024-02-21T13:54:51;15.90;65.50
18147;DHT22;9199;48.832;9.182;2024-02-21T13:57:18;15.90;66.20
18147;DHT22;9199;48.832;9.182;2024-02-21T13:59:45;15.90;66.80
18147;DHT22;9199;48.832;9.182;2024-02-21T14:02:11;15.90;67.10
18147;DHT22;9199;48.832;9.182;2024-02-21T14:04:38;15.80;66.60
18147;DHT22;9199;48.832;9.182;2024-02-21T14:07:07;15.80;67.40
18147;DHT22;9199;48.832;9.182;2024-02-21T14:09:34;15.70;66.50
18147;DHT22;9199;48.832;9.182;2024-02-21T14:12:01;15.60;66.20
18147;DHT22;9199;48.832;9.182;2024-02-21T14:14:28;15.50;67.30
18147;DHT22;9199;48.832;9.182;2024-02-21T14:16:54;15.50;67.20
18147;DHT22;9199;48.832;9.182;2024-02-21T14:19:21;15.50;67.40
18147;DHT22;9199;48.832;9.182;2024-02-21T14:21:48;15.50;66.20
18147;DHT22;9199;48.832;9.182;2024-02-21T14:24:16;15.40;66.90
18147;DHT22;9199;48.832;9.182;2024-02-21T14:26:43;15.40;66.30
18147;DHT22;9199;48.832;9.182;2024-02-21T14:29:09;15.30;66.80
18147;DHT22;9199;48.832;9.182;2024-02-21T14:31:38;15.20;67.20
18147;DHT22;9199;48.832;9.182;2024-02-21T14:34:04;15.20;67.50
18147;DHT22;9199;48.832;9.182;2024-02-21T14:36:33;15.20;66.50
18147;DHT22;9199;48.832;9.182;2024-02-21T14:39:00;15.20;66.20
18147;DHT22;9199;48.832;9.182;2024-02-21T14:41:28;15.20;66.00
18147;DHT22;9199;48.832;9.182;2024-02-21T14:43:55;15.10;66.10
18147;DHT22;9199;48.832;9.182;2024-02-21T14:46:25;15.00;66.00
18147;DHT22;9199;48.832;9.182;2024-02-21T14:48:53;15.10;65.70
18147;DHT22;9199;48.832;9.182;2024-02-21T14:51:20;15.10;65.00
18147;DHT22;9199;48.832;9.182;2024-02-21T14:53:47;15.10;65.60
18147;DHT22;9199;48.832;9.182;2024-02-21T14:56:14;15.10;65.20
18147;DHT22;9199;48.832;9.182;2024-02-21T14:58:42;15.00;64.00
18147;DHT22;9199;48.832;9.182;2024-02-21T15:01:09;14.90;64.80
18147;DHT22;9199;48.832;9.182;2024-02-21T15:03:37;14.80;63.90
18147;DHT22;9199;48.832;9.182;2024-02-21T15:06:04;14.70;63.30
18147;DHT22;9199;48.832;9.182;2024-02-21T15:08:31;14.50;63.20
18147;DHT22;9199;48.832;9.182;2024-02-21T15:10:57;14.40;63.60
18147;DHT22;9199;48.832;9.182;2024-02-21T15:13:24;14.40;64.40
18147;DHT22;9199;48.832;9.182;2024-02-21T15:15:52;14.40;63.90
18147;DHT22;9199;48.832;9.182;2024-02-21T15:18:20;14.40;63.60
18147;DHT22;9199;48.832;9.182;2024-02-21T15:20:46;14.40;63.70
18147;DHT22;9199;48.832;9.182;2024-02-21T15:23:13;14.30;63.20
18147;DHT22;9199;48.832;9.182;2024-02-21T15:25:40;14.30;62.00
18147;DHT22;9199;48.832;9.182;2024-02-21T15:28:08;14.20;61.10
18147;DHT22;9199;48.832;9.182;2024-02-21T15:30:35;14.10;61.40
18147;DHT22;9199;48.832;9.182;2024-02-21T15:33:04;14.00;62.10
18147;DHT22;9199;48.832;9.182;2024-02-21T15:35:31;14.10;61.80
18147;DHT22;9199;48.832;9.182;2024-02-21T15:37:59;14.10;61.00
18147;DHT22;9199;48.832;9.182;2024-02-21T15:40:25;14.10;61.40
18147;DHT22;9199;48.832;9.182;2024-02-21T15:42:52;14.10;60.80
18147;DHT22;9199;48.832;9.182;2024-02-21T15:45:20;14.10;60.60
18147;DHT22;9199;48.832;9.182;2024-02-21T15:47:46;14.10;61.50
18147;DHT22;9199;48.832;9.182;2024-02-21T15:50:15;14.10;61.70
18147;DHT22;9199;48.832;9.182;2024-02-21T15:52:41;14.00;61.70
18147;DHT22;9199;48.832;9.182;2024-02-21T15:55:08;13.90;62.50